sensor_id;sensor_type;location;lat;lon;timestamp;pressure;altitude;pressure_sealevel;temperature;humidity
4767;BME280;2397;53.576;9.746;2022-10-16T00:00:54;100851.84;;;12.97;100.00
4767;BME280;2397;53.576;9.746;2022-10-16T00:03:20;100859.63;;;12.96;100.00
4767;BME280;2397;53.576;9.746;2022-10-16T00:05:51;100855.25;;;12.87;100.00
4767;BME280;2397;53.576;9.746;2022-10-16T00:08:18;100869.06;;;12.80;100.00
4767;BME280;2397;53.576;9.746;2022-10-16T00:10:44;100869.88;;;12.77;100.00
4767;BME280;2397;53.576;9.746;2022-10-16T00:13:11;100863.00;;;12.78;100.00
4767;BME280;2397;53.576;9.746;2022-10-16T00:15:37;100857.88;;;12.95;100.00
4767;BME280;2397;53.576;9.746;2022-10-16T00:18:06;100869.06;;;12.80;100.00
4767;BME280;2397;53.576;9.746;2022-10-16T00:20:35;100866.44;;;12.77;100.00
4767;BME280;2397;53.576;9.746;2022-10-16T00:23:03;100863.03;;;12.84;100.00
4767;BME280;2397;53.576;9.746;2022-10-16T00:25:32;100863.88;;;12.85;100.00
4767;BME280;2397;53.576;9.746;2022-10-16T00:28:02;100871.66;;;12.83;100.00
4767;BME280;2397;53.576;9.746;2022-10-16T00:30:28;100875.16;;;12.82;100.00
4767;BME280;2397;53.576;9.746;2022-10-16T00:32:55;100874.28;;;12.89;100.00
4767;BME280;2397;53.576;9.746;2022-10-16T00:35:22;100882.06;;;12.83;100.00
4767;BME280;2397;53.576;9.746;2022-10-16T00:37:48;100879.47;;;12.83;100.00
4767;BME280;2397;53.576;9.746;2022-10-16T00:40:15;100877.75;;;12.83;100.00
4767;BME280;2397;53.576;9.746;2022-10-16T00:42:41;100879.47;;;12.83;100.00
4767;BME280;2397;53.576;9.746;2022-10-16T00:45:08;100882.03;;;12.78;100.00
4767;BME280;2397;53.576;9.746;2022-10-16T00:47:45;100888.94;;;12.75;100.00
4767;BME280;2397;53.576;9.746;2022-10-16T00:50:24;100884.63;;;12.80;100.00
4767;BME280;2397;53.576;9.746;2022-10-16T00:52:53;100892.41;;;12.77;100.00
4767;BME280;2397;53.576;9.746;2022-10-16T00:55:21;100894.13;;;12.72;100.00
4767;BME280;2397;53.576;9.746;2022-10-16T00:57:49;100897.53;;;12.66;100.00
4767;BME280;2397;53.576;9.746;2022-10-16T01:00:20;100891.47;;;12.69;100.00
4767;BME280;2397;53.576;9.746;2022-10-16T01:02:55;100893.22;;;12.70;100.00
4767;BME280;2397;53.576;9.746;2022-10-16T01:05:25;100907.94;;;12.66;100.00
4767;BME280;2397;53.576;9.746;2022-10-16T01:08:02;100898.38;;;12.62;100.00
4767;BME280;2397;53.576;9.746;2022-10-16T01:13:14;100906.06;;;12.48;100.00
4767;BME280;2397;53.576;9.746;2022-10-16T01:15:47;100898.19;;;12.42;100.00
4767;BME280;2397;53.576;9.746;2022-10-16T01:18:37;100903.41;;;12.45;100.00
4767;BME280;2397;53.576;9.746;2022-10-16T01:21:12;100899.13;;;12.48;100.00
4767;BME280;2397;53.576;9.746;2022-10-16T01:24:03;100900.88;;;12.50;100.00
4767;BME280;2397;53.576;9.746;2022-10-16T01:32:24;100906.84;;;12.38;100.00
4767;BME280;2397;53.576;9.746;2022-10-16T01:34:59;100900.78;;;12.40;100.00
4767;BME280;2397;53.576;9.746;2022-10-16T01:37:41;100899.88;;;12.34;100.00
4767;BME280;2397;53.576;9.746;2022-10-16T01:40:15;100904.22;;;12.36;100.00
4767;BME280;2397;53.576;9.746;2022-10-16T01:42:47;100898.03;;;12.20;100.00
4767;BME280;2397;53.576;9.746;2022-10-16T01:45:16;100899.75;;;12.21;100.00
4767;BME280;2397;53.576;9.746;2022-10-16T01:47:45;100899.66;;;12.12;100.00
4767;BME280;2397;53.576;9.746;2022-10-16T01:50:14;100904.09;;;12.22;100.00
4767;BME280;2397;53.576;9.746;2022-10-16T01:52:45;100907.63;;;12.29;100.00
4767;BME280;2397;53.576;9.746;2022-10-16T01:55:16;100904.09;;;12.24;100.00
4767;BME280;2397;53.576;9.746;2022-10-16T01:57:47;100907.50;;;12.20;100.00
4767;BME280;2397;53.576;9.746;2022-10-16T02:00:17;100913.59;;;12.20;100.00
4767;BME280;2397;53.576;9.746;2022-10-16T02:02:47;100906.56;;;12.10;100.00
4767;BME280;2397;53.576;9.746;2022-10-16T02:05:18;100919.63;;;12.18;100.00
4767;BME280;2397;53.576;9.746;2022-10-16T02:07:47;100916.16;;;12.16;100.00
4767;BME280;2397;53.576;9.746;2022-10-16T02:10:14;100917.00;;;12.16;100.00
4767;BME280;2397;53.576;9.746;2022-10-16T02:12:45;100912.63;;;12.12;100.00
4767;BME280;2397;53.576;9.746;2022-10-16T02:15:13;100908.34;;;12.14;100.00
4767;BME280;2397;53.576;9.746;2022-10-16T02:17:40;100908.25;;;12.05;100.00
4767;BME280;2397;53.576;9.746;2022-10-16T02:20:06;100912.56;;;12.04;100.00
4767;BME280;2397;53.576;9.746;2022-10-16T02:22:40;100920.19;;;11.90;100.00
4767;BME280;2397;53.576;9.746;2022-10-16T02:25:17;100914.25;;;11.99;100.00
4767;BME280;2397;53.576;9.746;2022-10-16T02:27:53;100922.94;;;12.03;100.00
4767;BME280;2397;53.576;9.746;2022-10-16T02:30:32;100915.00;;;11.92;100.00
4767;BME280;2397;53.576;9.746;2022-10-16T02:33:00;100916.81;;;11.98;100.00
4767;BME280;2397;53.576;9.746;2022-10-16T02:35:29;100918.56;;;11.99;100.00
4767;BME280;2397;53.576;9.746;2022-10-16T02:37:57;100920.25;;;11.95;100.00
4767;BME280;2397;53.576;9.746;2022-10-16T02:40:25;100912.41;;;11.90;100.00
4767;BME280;2397;53.576;9.746;2022-10-16T02:42:53;100914.00;;;11.79;100.00
4767;BME280;2397;53.576;9.746;2022-10-16T02:45:20;100920.16;;;11.87;100.00
4767;BME280;2397;53.576;9.746;2022-10-16T02:47:48;100913.31;;;11.94;100.00
4767;BME280;2397;53.576;9.746;2022-10-16T02:50:14;100912.28;;;11.83;100.00
4767;BME280;2397;53.576;9.746;2022-10-16T02:52:41;100908.91;;;11.88;100.00
4767;BME280;2397;53.576;9.746;2022-10-16T02:55:08;100913.22;;;11.88;100.00
4767;BME280;2397;53.576;9.746;2022-10-16T02:57:34;100909.78;;;11.89;100.00
4767;BME280;2397;53.576;9.746;2022-10-16T03:00:04;100919.97;;;11.72;100.00
4767;BME280;2397;53.576;9.746;2022-10-16T03:02:31;100916.56;;;11.76;100.00
4767;BME280;2397;53.576;9.746;2022-10-16T03:04:57;100924.28;;;11.71;100.00
4767;BME280;2397;53.576;9.746;2022-10-16T03:07:23;100916.44;;;11.64;100.00
4767;BME280;2397;53.576;9.746;2022-10-16T03:09:50;100912.13;;;11.67;100.00
4767;BME280;2397;53.576;9.746;2022-10-16T03:12:16;100906.91;;;11.64;100.00
4767;BME280;2397;53.576;9.746;2022-10-16T03:14:43;100912.16;;;11.69;100.00
4767;BME280;2397;53.576;9.746;2022-10-16T03:17:09;100913.84;;;11.65;100.00
4767;BME280;2397;53.576;9.746;2022-10-16T03:19:36;100917.34;;;11.69;100.00
4767;BME280;2397;53.576;9.746;2022-10-16T03:22:02;100924.13;;;11.60;100.00
4767;BME280;2397;53.576;9.746;2022-10-16T03:24:28;100919.75;;;11.53;100.00
4767;BME280;2397;53.576;9.746;2022-10-16T03:26:55;100922.34;;;11.52;100.00
4767;BME280;2397;53.576;9.746;2022-10-16T03:29:21;100923.09;;;11.43;100.00
4767;BME280;2397;53.576;9.746;2022-10-16T03:31:48;100915.31;;;11.45;100.00
4767;BME280;2397;53.576;9.746;2022-10-16T03:34:15;100913.47;;;11.36;100.00
4767;BME280;2397;53.576;9.746;2022-10-16T03:36:42;100917.00;;;11.41;100.00
4767;BME280;2397;53.576;9.746;2022-10-16T03:39:08;100911.03;;;11.48;100.00
4767;BME280;2397;53.576;9.746;2022-10-16T03:41:34;100909.25;;;11.44;100.00
4767;BME280;2397;53.576;9.746;2022-10-16T03:44:01;100918.66;;;11.34;100.00
4767;BME280;2397;53.576;9.746;2022-10-16T03:46:27;100923.97;;;11.45;100.00
4767;BME280;2397;53.576;9.746;2022-10-16T03:48:54;100924.75;;;11.39;100.00
4767;BME280;2397;53.576;9.746;2022-10-16T03:51:20;100918.75;;;11.42;100.00
4767;BME280;2397;53.576;9.746;2022-10-16T03:53:46;100913.56;;;11.43;100.00
4767;BME280;2397;53.576;9.746;2022-10-16T03:56:13;100923.88;;;11.37;100.00
4767;BME280;2397;53.576;9.746;2022-10-16T03:58:39;100929.94;;;11.41;100.00
4767;BME280;2397;53.576;9.746;2022-10-16T04:01:06;100935.06;;;11.35;100.00
4767;BME280;2397;53.576;9.746;2022-10-16T04:03:32;100948.94;;;11.38;100.00
4767;BME280;2397;53.576;9.746;2022-10-16T04:05:59;100951.38;;;11.29;100.00
4767;BME280;2397;53.576;9.746;2022-10-16T04:08:25;100953.97;;;11.29;100.00
4767;BME280;2397;53.576;9.746;2022-10-16T04:10:51;100957.44;;;11.28;100.00
4767;BME280;2397;53.576;9.746;2022-10-16T04:13:18;100959.25;;;11.37;100.00
4767;BME280;2397;53.576;9.746;2022-10-16T04:15:45;100962.72;;;11.36;100.00
4767;BME280;2397;53.576;9.746;2022-10-16T04:18:12;100965.22;;;11.30;100.00
4767;BME280;2397;53.576;9.746;2022-10-16T04:20:38;100955.59;;;11.21;100.00
4767;BME280;2397;53.576;9.746;2022-10-16T04:23:05;100965.78;;;11.10;100.00
4767;BME280;2397;53.576;9.746;2022-10-16T04:25:31;100954.66;;;11.16;100.00
4767;BME280;2397;53.576;9.746;2022-10-16T04:27:58;100959.81;;;11.14;100.00
4767;BME280;2397;53.576;9.746;2022-10-16T04:30:25;100959.13;;;11.28;100.00
4767;BME280;2397;53.576;9.746;2022-10-16T04:32:52;100973.69;;;11.18;100.00
4767;BME280;2397;53.576;9.746;2022-10-16T04:35:20;100978.75;;;11.10;100.00
4767;BME280;2397;53.576;9.746;2022-10-16T04:37:47;100977.22;;;11.23;100.00
4767;BME280;2397;53.576;9.746;2022-10-16T04:40:14;100986.72;;;11.22;100.00
4767;BME280;2397;53.576;9.746;2022-10-16T04:42:40;100994.34;;;11.13;100.00
4767;BME280;2397;53.576;9.746;2022-10-16T04:45:07;100997.94;;;11.21;100.00
4767;BME280;2397;53.576;9.746;2022-10-16T04:47:40;100995.25;;;11.15;100.00
4767;BME280;2397;53.576;9.746;2022-10-16T04:50:06;100981.47;;;11.18;100.00
4767;BME280;2397;53.576;9.746;2022-10-16T04:52:33;100988.22;;;11.08;100.00
4767;BME280;2397;53.576;9.746;2022-10-16T04:55:00;100989.09;;;11.08;100.00
4767;BME280;2397;53.576;9.746;2022-10-16T04:57:29;100980.44;;;11.08;100.00
4767;BME280;2397;53.576;9.746;2022-10-16T04:59:56;100989.13;;;11.12;100.00
4767;BME280;2397;53.576;9.746;2022-10-16T05:02:22;100986.50;;;11.10;100.00
4767;BME280;2397;53.576;9.746;2022-10-16T05:04:48;100983.09;;;11.13;100.00
4767;BME280;2397;53.576;9.746;2022-10-16T05:07:15;100983.09;;;11.11;100.00
4767;BME280;2397;53.576;9.746;2022-10-16T05:09:42;100989.06;;;11.07;100.00
4767;BME280;2397;53.576;9.746;2022-10-16T05:12:08;100995.94;;;11.05;100.00
4767;BME280;2397;53.576;9.746;2022-10-16T05:14:34;100999.41;;;11.05;100.00
4767;BME280;2397;53.576;9.746;2022-10-16T05:17:01;100996.84;;;11.08;100.00
4767;BME280;2397;53.576;9.746;2022-10-16T05:19:27;100996.63;;;10.93;100.00
4767;BME280;2397;53.576;9.746;2022-10-16T05:21:54;100993.31;;;11.02;100.00
4767;BME280;2397;53.576;9.746;2022-10-16T05:24:20;100999.41;;;11.05;100.00
4767;BME280;2397;53.576;9.746;2022-10-16T05:26:47;101003.78;;;11.10;100.00
4767;BME280;2397;53.576;9.746;2022-10-16T05:29:14;101016.75;;;11.10;100.00
4767;BME280;2397;53.576;9.746;2022-10-16T05:31:40;101021.06;;;11.09;100.00
4767;BME280;2397;53.576;9.746;2022-10-16T05:34:06;101021.03;;;11.06;100.00
4767;BME280;2397;53.576;9.746;2022-10-16T05:36:33;101021.84;;;11.03;100.00
4767;BME280;2397;53.576;9.746;2022-10-16T05:39:00;101020.81;;;10.94;100.00
4767;BME280;2397;53.576;9.746;2022-10-16T05:41:26;101020.13;;;11.05;100.00
4767;BME280;2397;53.576;9.746;2022-10-16T05:43:53;101018.31;;;11.00;100.00
4767;BME280;2397;53.576;9.746;2022-10-16T05:46:19;101023.59;;;11.04;100.00
4767;BME280;2397;53.576;9.746;2022-10-16T05:48:46;101017.47;;;11.01;100.00
4767;BME280;2397;53.576;9.746;2022-10-16T05:51:13;101018.44;;;11.06;100.00
4767;BME280;2397;53.576;9.746;2022-10-16T05:53:40;101027.13;;;11.11;100.00
4767;BME280;2397;53.576;9.746;2022-10-16T05:56:09;101016.81;;;11.14;100.00
4767;BME280;2397;53.576;9.746;2022-10-16T05:58:37;101016.84;;;11.17;100.00
4767;BME280;2397;53.576;9.746;2022-10-16T06:01:13;101022.91;;;11.16;100.00
4767;BME280;2397;53.576;9.746;2022-10-16T06:03:40;101025.34;;;11.08;100.00
4767;BME280;2397;53.576;9.746;2022-10-16T06:06:22;101022.00;;;11.14;100.00
4767;BME280;2397;53.576;9.746;2022-10-16T06:08:49;101028.88;;;11.12;100.00
4767;BME280;2397;53.576;9.746;2022-10-16T06:11:24;101025.44;;;11.13;100.00
4767;BME280;2397;53.576;9.746;2022-10-16T06:13:52;101028.78;;;11.06;100.00
4767;BME280;2397;53.576;9.746;2022-10-16T06:16:19;101030.50;;;11.07;100.00
4767;BME280;2397;53.576;9.746;2022-10-16T06:18:46;101033.28;;;11.16;100.00
4767;BME280;2397;53.576;9.746;2022-10-16T06:21:18;101035.75;;;11.12;100.00
4767;BME280;2397;53.576;9.746;2022-10-16T06:23:45;101028.81;;;11.07;100.00
4767;BME280;2397;53.576;9.746;2022-10-16T06:26:16;101025.38;;;11.10;100.00
4767;BME280;2397;53.576;9.746;2022-10-16T06:28:43;101028.00;;;11.12;100.00
4767;BME280;2397;53.576;9.746;2022-10-16T06:31:11;101042.78;;;11.19;100.00
4767;BME280;2397;53.576;9.746;2022-10-16T06:33:39;101051.44;;;11.18;100.00
4767;BME280;2397;53.576;9.746;2022-10-16T06:36:08;101054.09;;;11.22;100.00
4767;BME280;2397;53.576;9.746;2022-10-16T06:38:35;101058.31;;;11.17;100.00
4767;BME280;2397;53.576;9.746;2022-10-16T06:41:02;101061.00;;;11.23;100.00
4767;BME280;2397;53.576;9.746;2022-10-16T06:43:30;101059.47;;;11.35;100.00
4767;BME280;2397;53.576;9.746;2022-10-16T06:46:02;101060.28;;;11.34;100.00
4767;BME280;2397;53.576;9.746;2022-10-16T06:48:29;101069.13;;;11.45;100.00
4767;BME280;2397;53.576;9.746;2022-10-16T06:53:27;101072.50;;;11.41;100.00
4767;BME280;2397;53.576;9.746;2022-10-16T06:55:55;101085.47;;;11.41;100.00
4767;BME280;2397;53.576;9.746;2022-10-16T06:58:22;101081.31;;;11.51;100.00
4767;BME280;2397;53.576;9.746;2022-10-16T07:00:49;101079.69;;;11.59;100.00
4767;BME280;2397;53.576;9.746;2022-10-16T07:03:20;101087.53;;;11.62;100.00
4767;BME280;2397;53.576;9.746;2022-10-16T07:05:47;101074.47;;;11.57;100.00
4767;BME280;2397;53.576;9.746;2022-10-16T07:08:13;101087.47;;;11.59;100.00
4767;BME280;2397;53.576;9.746;2022-10-16T07:10:39;101091.00;;;11.64;100.00
4767;BME280;2397;53.576;9.746;2022-10-16T07:13:06;101091.00;;;11.63;100.00
4767;BME280;2397;53.576;9.746;2022-10-16T07:15:33;101099.66;;;11.66;100.00
4767;BME280;2397;53.576;9.746;2022-10-16T07:18:00;101100.59;;;11.68;100.00
4767;BME280;2397;53.576;9.746;2022-10-16T07:20:26;101105.91;;;11.77;100.00
4767;BME280;2397;53.576;9.746;2022-10-16T07:22:53;101106.75;;;11.76;100.00
4767;BME280;2397;53.576;9.746;2022-10-16T07:25:19;101108.56;;;11.82;100.00
4767;BME280;2397;53.576;9.746;2022-10-16T07:27:45;101118.25;;;11.94;100.00
4767;BME280;2397;53.576;9.746;2022-10-16T07:30:12;101132.22;;;12.01;100.00
4767;BME280;2397;53.576;9.746;2022-10-16T07:32:39;101128.81;;;12.08;100.00
4767;BME280;2397;53.576;9.746;2022-10-16T07:35:05;101130.59;;;12.12;100.00
4767;BME280;2397;53.576;9.746;2022-10-16T07:37:32;101130.63;;;12.13;100.00
4767;BME280;2397;53.576;9.746;2022-10-16T07:39:58;101129.88;;;12.21;100.00
4767;BME280;2397;53.576;9.746;2022-10-16T07:42:25;101129.09;;;12.28;100.00
4767;BME280;2397;53.576;9.746;2022-10-16T07:44:51;101134.25;;;12.26;100.00
4767;BME280;2397;53.576;9.746;2022-10-16T07:47:18;101135.16;;;12.28;100.00
4767;BME280;2397;53.576;9.746;2022-10-16T07:49:44;101145.53;;;12.28;100.00
4767;BME280;2397;53.576;9.746;2022-10-16T07:52:11;101146.47;;;12.32;100.00
4767;BME280;2397;53.576;9.746;2022-10-16T07:54:37;101152.50;;;12.33;100.00
4767;BME280;2397;53.576;9.746;2022-10-16T07:57:03;101156.81;;;12.30;100.00
4767;BME280;2397;53.576;9.746;2022-10-16T07:59:30;101155.94;;;12.30;100.00
4767;BME280;2397;53.576;9.746;2022-10-16T08:01:57;101155.91;;;12.28;100.00
4767;BME280;2397;53.576;9.746;2022-10-16T08:04:23;101162.94;;;12.36;100.00
4767;BME280;2397;53.576;9.746;2022-10-16T08:06:49;101169.03;;;12.38;100.00
4767;BME280;2397;53.576;9.746;2022-10-16T08:09:16;101173.34;;;12.39;100.00
4767;BME280;2397;53.576;9.746;2022-10-16T08:11:42;101166.53;;;12.47;100.00
4767;BME280;2397;53.576;9.746;2022-10-16T08:14:09;101164.75;;;12.43;100.00
4767;BME280;2397;53.576;9.746;2022-10-16T08:16:35;101162.38;;;12.58;100.00
4767;BME280;2397;53.576;9.746;2022-10-16T08:19:02;101148.66;;;12.72;100.00
4767;BME280;2397;53.576;9.746;2022-10-16T08:21:29;101160.84;;;12.80;100.00
4767;BME280;2397;53.576;9.746;2022-10-16T08:23:55;101170.47;;;12.89;100.00
4767;BME280;2397;53.576;9.746;2022-10-16T08:26:24;101172.41;;;13.06;100.00
4767;BME280;2397;53.576;9.746;2022-10-16T08:28:50;101176.72;;;13.05;100.00
4767;BME280;2397;53.576;9.746;2022-10-16T08:31:18;101168.97;;;13.10;100.00
4767;BME280;2397;53.576;9.746;2022-10-16T08:33:45;101180.28;;;13.15;100.00
4767;BME280;2397;53.576;9.746;2022-10-16T08:36:14;101172.53;;;13.20;100.00
4767;BME280;2397;53.576;9.746;2022-10-16T08:38:41;101171.69;;;13.22;100.00
4767;BME280;2397;53.576;9.746;2022-10-16T08:41:27;101177.72;;;13.18;100.00
4767;BME280;2397;53.576;9.746;2022-10-16T08:44:10;101179.53;;;13.25;100.00
4767;BME280;2397;53.576;9.746;2022-10-16T08:46:59;101174.47;;;13.38;100.00
4767;BME280;2397;53.576;9.746;2022-10-16T08:49:30;101175.31;;;13.38;100.00
4767;BME280;2397;53.576;9.746;2022-10-16T08:51:57;101181.41;;;13.39;100.00
4767;BME280;2397;53.576;9.746;2022-10-16T08:54:34;101189.25;;;13.42;100.00
4767;BME280;2397;53.576;9.746;2022-10-16T08:57:14;101192.72;;;13.47;100.00
4767;BME280;2397;53.576;9.746;2022-10-16T08:59:49;101203.19;;;13.51;100.00
4767;BME280;2397;53.576;9.746;2022-10-16T09:02:37;101206.69;;;13.57;100.00
4767;BME280;2397;53.576;9.746;2022-10-16T09:07:55;101212.06;;;13.77;100.00
4767;BME280;2397;53.576;9.746;2022-10-16T09:10:46;101223.41;;;13.85;100.00
4767;BME280;2397;53.576;9.746;2022-10-16T09:13:53;101225.16;;;13.84;100.00
4767;BME280;2397;53.576;9.746;2022-10-16T09:16:27;101225.16;;;13.87;100.00
4767;BME280;2397;53.576;9.746;2022-10-16T09:21:33;101233.06;;;14.01;100.00
4767;BME280;2397;53.576;9.746;2022-10-16T09:24:11;101234.81;;;14.02;100.00
4767;BME280;2397;53.576;9.746;2022-10-16T09:26:39;101232.19;;;13.99;100.00
4767;BME280;2397;53.576;9.746;2022-10-16T09:29:06;101236.53;;;14.00;100.00
4767;BME280;2397;53.576;9.746;2022-10-16T09:31:35;101232.22;;;14.05;100.00
4767;BME280;2397;53.576;9.746;2022-10-16T09:34:03;101230.50;;;14.09;100.00
4767;BME280;2397;53.576;9.746;2022-10-16T09:36:42;101234.91;;;14.19;100.00
4767;BME280;2397;53.576;9.746;2022-10-16T09:39:10;101241.03;;;14.23;100.00
4767;BME280;2397;53.576;9.746;2022-10-16T09:41:40;101236.72;;;14.28;100.00
4767;BME280;2397;53.576;9.746;2022-10-16T09:44:26;101245.41;;;14.30;100.00
4767;BME280;2397;53.576;9.746;2022-10-16T09:47:05;101241.97;;;14.36;100.00
4767;BME280;2397;53.576;9.746;2022-10-16T09:49:32;101243.72;;;14.37;100.00
4767;BME280;2397;53.576;9.746;2022-10-16T09:52:09;101249.81;;;14.37;100.00
4767;BME280;2397;53.576;9.746;2022-10-16T09:54:37;101244.66;;;14.47;100.00
4767;BME280;2397;53.576;9.746;2022-10-16T09:57:10;101251.63;;;14.51;100.00
4767;BME280;2397;53.576;9.746;2022-10-16T09:59:49;101262.13;;;14.63;100.00
4767;BME280;2397;53.576;9.746;2022-10-16T10:02:18;101260.38;;;14.65;100.00
4767;BME280;2397;53.576;9.746;2022-10-16T10:04:51;101269.97;;;14.69;100.00
4767;BME280;2397;53.576;9.746;2022-10-16T10:07:24;101269.09;;;14.67;100.00
4767;BME280;2397;53.576;9.746;2022-10-16T10:09:53;101273.44;;;14.68;100.00
4767;BME280;2397;53.576;9.746;2022-10-16T10:12:27;101279.53;;;14.67;100.00
4767;BME280;2397;53.576;9.746;2022-10-16T10:14:56;101268.28;;;14.76;100.00
4767;BME280;2397;53.576;9.746;2022-10-16T10:17:26;101277.88;;;14.88;100.00
4767;BME280;2397;53.576;9.746;2022-10-16T10:20:15;101275.22;;;14.83;100.00
4767;BME280;2397;53.576;9.746;2022-10-16T10:22:47;101277.00;;;14.92;100.00
4767;BME280;2397;53.576;9.746;2022-10-16T10:27:56;101274.50;;;15.17;100.00
4767;BME280;2397;53.576;9.746;2022-10-16T10:30:49;101273.66;;;15.24;100.00
4767;BME280;2397;53.576;9.746;2022-10-16T10:33:24;101285.84;;;15.28;100.00
4767;BME280;2397;53.576;9.746;2022-10-16T10:38:50;101280.66;;;15.43;100.00
4767;BME280;2397;53.576;9.746;2022-10-16T10:44:57;101292.00;;;15.59;100.00
4767;BME280;2397;53.576;9.746;2022-10-16T10:47:52;101283.25;;;15.48;100.00
4767;BME280;2397;53.576;9.746;2022-10-16T10:50:34;101287.63;;;15.40;100.00
4767;BME280;2397;53.576;9.746;2022-10-16T10:53:18;101290.22;;;15.46;100.00
4767;BME280;2397;53.576;9.746;2022-10-16T10:55:53;101283.31;;;15.68;100.00
4767;BME280;2397;53.576;9.746;2022-10-16T11:01:12;101289.41;;;16.15;100.00
4767;BME280;2397;53.576;9.746;2022-10-16T11:07:00;101298.94;;;16.58;100.00
4767;BME280;2397;53.576;9.746;2022-10-16T11:09:33;101304.13;;;16.64;96.48
4767;BME280;2397;53.576;9.746;2022-10-16T11:14:49;101308.47;;;16.76;97.04
4767;BME280;2397;53.576;9.746;2022-10-16T11:17:31;101314.66;;;16.45;96.05
4767;BME280;2397;53.576;9.746;2022-10-16T11:20:05;101316.34;;;16.60;96.93
4767;BME280;2397;53.576;9.746;2022-10-16T11:22:58;101315.53;;;16.30;97.75
4767;BME280;2397;53.576;9.746;2022-10-16T11:25:30;101318.16;;;16.26;97.65
4767;BME280;2397;53.576;9.746;2022-10-16T11:28:16;101323.34;;;16.57;96.05
4767;BME280;2397;53.576;9.746;2022-10-16T11:30:50;101332.09;;;16.11;94.59
4767;BME280;2397;53.576;9.746;2022-10-16T11:38:51;101346.03;;;16.10;93.51
4767;BME280;2397;53.576;9.746;2022-10-16T11:41:28;101342.53;;;16.31;93.57
4767;BME280;2397;53.576;9.746;2022-10-16T11:46:57;101356.47;;;16.18;94.28
4767;BME280;2397;53.576;9.746;2022-10-16T11:49:47;101344.25;;;16.10;95.90
4767;BME280;2397;53.576;9.746;2022-10-16T11:52:26;101344.25;;;16.61;88.15
4767;BME280;2397;53.576;9.746;2022-10-16T11:54:59;101359.94;;;16.57;84.27
4767;BME280;2397;53.576;9.746;2022-10-16T11:57:33;101365.16;;;16.60;85.35
4767;BME280;2397;53.576;9.746;2022-10-16T12:00:14;101361.38;;;17.53;84.71
4767;BME280;2397;53.576;9.746;2022-10-16T12:02:50;101358.56;;;17.90;77.51
4767;BME280;2397;53.576;9.746;2022-10-16T12:05:24;101372.44;;;18.02;73.64
4767;BME280;2397;53.576;9.746;2022-10-16T12:08:09;101366.38;;;17.94;73.16
4767;BME280;2397;53.576;9.746;2022-10-16T12:10:38;101377.84;;;17.72;71.11
4767;BME280;2397;53.576;9.746;2022-10-16T12:13:37;101374.06;;;18.18;69.55
4767;BME280;2397;53.576;9.746;2022-10-16T12:16:20;101376.50;;;18.37;68.17
4767;BME280;2397;53.576;9.746;2022-10-16T12:18:47;101379.50;;;17.84;70.41
4767;BME280;2397;53.576;9.746;2022-10-16T12:21:15;101393.78;;;17.20;74.21
4767;BME280;2397;53.576;9.746;2022-10-16T12:23:54;101384.28;;;16.96;77.06
4767;BME280;2397;53.576;9.746;2022-10-16T12:26:29;101393.03;;;16.65;76.22
4767;BME280;2397;53.576;9.746;2022-10-16T12:28:57;101396.50;;;16.94;77.83
4767;BME280;2397;53.576;9.746;2022-10-16T12:31:39;101396.53;;;16.57;76.35
4767;BME280;2397;53.576;9.746;2022-10-16T12:34:37;101398.25;;;16.76;75.26
4767;BME280;2397;53.576;9.746;2022-10-16T12:39:40;101410.44;;;16.94;74.13
4767;BME280;2397;53.576;9.746;2022-10-16T12:44:54;101405.16;;;17.17;72.43
4767;BME280;2397;53.576;9.746;2022-10-16T12:47:37;101411.28;;;16.95;73.02
4767;BME280;2397;53.576;9.746;2022-10-16T12:50:33;101410.22;;;17.54;71.25
4767;BME280;2397;53.576;9.746;2022-10-16T12:53:02;101408.75;;;18.48;66.16
4767;BME280;2397;53.576;9.746;2022-10-16T12:55:35;101404.16;;;18.73;66.22
4767;BME280;2397;53.576;9.746;2022-10-16T12:58:28;101407.34;;;19.05;65.64
4767;BME280;2397;53.576;9.746;2022-10-16T13:01:16;101413.09;;;19.36;64.97
4767;BME280;2397;53.576;9.746;2022-10-16T13:04:08;101424.50;;;19.35;62.81
4767;BME280;2397;53.576;9.746;2022-10-16T13:06:47;101427.25;;;19.24;64.48
4767;BME280;2397;53.576;9.746;2022-10-16T13:09:45;101435.13;;;19.23;62.53
4767;BME280;2397;53.576;9.746;2022-10-16T13:17:37;101440.13;;;18.57;61.63
4767;BME280;2397;53.576;9.746;2022-10-16T13:20:30;101440.56;;;19.07;60.38
4767;BME280;2397;53.576;9.746;2022-10-16T13:26:14;101458.19;;;17.61;66.63
4767;BME280;2397;53.576;9.746;2022-10-16T13:28:43;101455.31;;;18.15;65.46
4767;BME280;2397;53.576;9.746;2022-10-16T13:31:17;101458.59;;;18.45;63.04
4767;BME280;2397;53.576;9.746;2022-10-16T13:33:50;101470.91;;;18.34;65.15
4767;BME280;2397;53.576;9.746;2022-10-16T13:36:23;101469.88;;;18.58;64.85
4767;BME280;2397;53.576;9.746;2022-10-16T13:39:00;101468.59;;;17.75;65.80
4767;BME280;2397;53.576;9.746;2022-10-16T13:41:30;101473.84;;;17.70;65.59
4767;BME280;2397;53.576;9.746;2022-10-16T13:43:57;101472.03;;;17.89;62.86
4767;BME280;2397;53.576;9.746;2022-10-16T13:46:24;101479.00;;;17.87;64.05
4767;BME280;2397;53.576;9.746;2022-10-16T13:49:04;101480.00;;;17.66;63.83
4767;BME280;2397;53.576;9.746;2022-10-16T13:51:31;101482.50;;;17.88;65.34
4767;BME280;2397;53.576;9.746;2022-10-16T13:53:58;101479.88;;;17.86;63.39
4767;BME280;2397;53.576;9.746;2022-10-16T13:56:27;101485.13;;;17.86;63.66
4767;BME280;2397;53.576;9.746;2022-10-16T13:58:59;101490.44;;;17.74;64.11
4767;BME280;2397;53.576;9.746;2022-10-16T14:01:28;101497.38;;;17.80;65.35
4767;BME280;2397;53.576;9.746;2022-10-16T14:04:04;101500.00;;;17.72;65.87
4767;BME280;2397;53.576;9.746;2022-10-16T14:06:32;101505.28;;;17.67;65.60
4767;BME280;2397;53.576;9.746;2022-10-16T14:09:07;101505.28;;;17.75;66.96
4767;BME280;2397;53.576;9.746;2022-10-16T14:11:42;101508.78;;;17.59;67.70
4767;BME280;2397;53.576;9.746;2022-10-16T14:14:12;101521.97;;;17.37;69.01
4767;BME280;2397;53.576;9.746;2022-10-16T14:16:41;101529.84;;;17.14;69.01
4767;BME280;2397;53.576;9.746;2022-10-16T14:19:20;101522.78;;;17.45;70.58